createdAt,value
2023-05-02T00:01:06.287Z,2.00
2023-05-02T00:03:55.815Z,1.90
2023-05-02T00:06:47.476Z,1.80
2023-05-02T00:09:36.813Z,1.90
2023-05-02T00:12:26.122Z,1.95
2023-05-02T00:15:15.466Z,1.85
2023-05-02T00:18:04.816Z,2.05
2023-05-02T00:20:54.190Z,1.83
2023-05-02T00:23:43.548Z,2.00
2023-05-02T00:26:32.854Z,1.73
2023-05-02T00:29:22.412Z,1.95
2023-05-02T00:32:11.746Z,1.70
2023-05-02T00:35:01.859Z,1.95
2023-05-02T00:37:51.259Z,1.90
2023-05-02T00:40:53.274Z,1.90
2023-05-02T00:43:42.588Z,1.75
2023-05-02T00:46:32.435Z,2.30
2023-05-02T00:49:21.950Z,2.30
2023-05-02T00:52:11.749Z,2.38
2023-05-02T00:55:03.073Z,2.15
2023-05-02T00:57:52.411Z,1.77
2023-05-02T01:00:49.261Z,2.20
2023-05-02T01:03:52.539Z,2.55
2023-05-02T01:07:03.360Z,2.05
2023-05-02T01:10:07.487Z,2.80
2023-05-02T01:13:10.938Z,2.60
2023-05-02T01:16:02.610Z,2.80
2023-05-02T01:18:52.897Z,2.67
2023-05-02T01:21:42.946Z,3.55
2023-05-02T01:24:57.978Z,3.10
2023-05-02T01:27:59.719Z,2.30
2023-05-02T01:30:51.951Z,2.00
2023-05-02T01:33:43.180Z,2.45
2023-05-02T01:36:35.462Z,2.30
2023-05-02T01:39:27.359Z,2.35
2023-05-02T01:42:17.977Z,2.40
2023-05-02T01:45:09.346Z,2.20
2023-05-02T01:48:00.237Z,2.13
2023-05-02T01:50:51.495Z,2.20
2023-05-02T01:53:42.091Z,2.30
2023-05-02T01:56:35.334Z,2.13
2023-05-02T01:59:26.722Z,2.30
2023-05-02T02:02:17.244Z,2.30
2023-05-02T02:05:08.880Z,2.13
2023-05-02T02:07:59.709Z,2.05
2023-05-02T02:10:55.435Z,2.00
2023-05-02T02:13:54.426Z,2.22
2023-05-02T02:16:45.137Z,1.90
2023-05-02T02:19:35.939Z,1.90
2023-05-02T02:22:29.228Z,2.50
2023-05-02T02:25:19.891Z,2.45
2023-05-02T02:28:09.715Z,2.33
2023-05-02T02:30:59.372Z,2.00
2023-05-02T02:33:49.292Z,2.42
2023-05-02T02:36:49.207Z,2.13
2023-05-02T02:39:51.667Z,2.05
2023-05-02T02:42:52.518Z,2.17
2023-05-02T02:45:51.055Z,2.05
2023-05-02T02:48:55.335Z,2.22
2023-05-02T02:51:49.965Z,2.10
2023-05-02T02:54:54.749Z,2.20
2023-05-02T02:58:03.671Z,2.30
2023-05-02T03:00:54.264Z,2.22
2023-05-02T03:03:45.801Z,2.08
2023-05-02T03:06:35.308Z,2.40
2023-05-02T03:09:24.660Z,2.10
2023-05-02T03:12:14.538Z,1.90
2023-05-02T03:15:42.629Z,2.38
2023-05-02T03:18:34.700Z,2.03
2023-05-02T03:21:24.832Z,1.90
2023-05-02T03:24:16.186Z,2.15
2023-05-02T03:27:07.414Z,1.77
2023-05-02T03:30:02.631Z,2.08
2023-05-02T03:32:54.239Z,2.38
2023-05-02T03:35:44.145Z,1.80
2023-05-02T03:38:34.726Z,2.00
2023-05-02T03:41:28.340Z,2.25
2023-05-02T03:44:24.765Z,2.10
2023-05-02T03:47:14.915Z,1.98
2023-05-02T03:50:06.092Z,1.90
2023-05-02T03:52:56.146Z,1.98
2023-05-02T03:55:55.373Z,2.00
2023-05-02T03:58:53.805Z,2.30
2023-05-02T04:01:46.928Z,2.10
2023-05-02T04:04:37.413Z,2.00
2023-05-02T04:07:27.409Z,2.00
2023-05-02T04:10:24.093Z,1.90
2023-05-02T04:13:17.021Z,1.80
2023-05-02T04:16:10.212Z,2.13
2023-05-02T04:19:01.556Z,1.92
2023-05-02T04:21:51.291Z,2.05
2023-05-02T04:24:40.613Z,1.83
2023-05-02T04:27:30.163Z,1.88
2023-05-02T04:30:20.872Z,1.90
2023-05-02T04:33:20.060Z,1.95
2023-05-02T04:36:12.043Z,1.80
2023-05-02T04:39:05.890Z,2.00
2023-05-02T04:41:56.971Z,1.70
2023-05-02T04:44:49.841Z,2.00
2023-05-02T04:47:39.562Z,1.83
2023-05-02T04:50:30.309Z,2.00
2023-05-02T04:53:19.779Z,2.10
2023-05-02T04:56:09.570Z,2.15
2023-05-02T04:59:00.175Z,2.00
2023-05-02T05:01:50.390Z,2.20
2023-05-02T05:04:40.367Z,2.05
2023-05-02T05:07:29.749Z,2.10
2023-05-02T05:10:19.822Z,1.90
2023-05-02T05:13:09.415Z,2.00
2023-05-02T05:15:59.139Z,1.92
2023-05-02T05:21:40.994Z,1.90
2023-05-02T05:24:31.426Z,2.20
2023-05-02T05:27:22.557Z,2.05
2023-05-02T05:30:12.495Z,2.00
2023-05-02T05:33:03.745Z,1.88
2023-05-02T05:35:53.609Z,2.05
2023-05-02T05:38:43.171Z,2.00
2023-05-02T05:41:34.591Z,2.25
2023-05-02T05:44:27.835Z,2.05
2023-05-02T05:47:25.752Z,2.10
2023-05-02T05:50:15.265Z,1.98
2023-05-02T05:53:05.822Z,1.80
2023-05-02T05:55:55.678Z,1.95
2023-05-02T05:58:45.301Z,2.30
2023-05-02T06:01:37.666Z,1.98
2023-05-02T06:04:28.227Z,2.35
2023-05-02T06:07:17.741Z,1.90
2023-05-02T06:10:07.883Z,2.00
2023-05-02T06:12:57.887Z,1.80
2023-05-02T06:15:52.545Z,1.80
2023-05-02T06:18:41.856Z,1.75
2023-05-02T06:21:31.133Z,2.13
2023-05-02T06:24:20.360Z,2.10
2023-05-02T06:27:09.657Z,2.10
2023-05-02T06:29:59.141Z,2.00
2023-05-02T06:32:48.833Z,2.00
2023-05-02T06:35:38.080Z,2.17
2023-05-02T06:38:27.490Z,2.00
2023-05-02T06:41:18.318Z,2.20
2023-05-02T06:44:07.882Z,2.00
2023-05-02T06:46:57.342Z,1.90
2023-05-02T06:49:46.968Z,2.20
2023-05-02T06:52:36.426Z,1.95
2023-05-02T06:55:25.778Z,2.00
2023-05-02T06:58:15.132Z,2.10
2023-05-02T07:01:04.492Z,1.80
2023-05-02T07:03:54.059Z,2.10
2023-05-02T07:06:43.455Z,2.00
2023-05-02T07:09:32.765Z,2.10
2023-05-02T07:12:22.493Z,2.20
2023-05-02T07:15:12.158Z,2.33
2023-05-02T07:18:01.789Z,2.13
2023-05-02T07:20:51.480Z,2.00
2023-05-02T07:23:40.771Z,2.20
2023-05-02T07:26:30.086Z,2.00
2023-05-02T07:29:19.324Z,2.17
2023-05-02T07:32:08.642Z,1.73
2023-05-02T07:34:58.316Z,2.25
2023-05-02T07:37:47.614Z,2.10
2023-05-02T07:40:36.908Z,2.30
2023-05-02T07:43:26.180Z,2.00
2023-05-02T07:46:15.682Z,2.35
2023-05-02T07:49:05.313Z,2.00
2023-05-02T07:51:54.623Z,2.05
2023-05-02T07:54:43.842Z,2.05
2023-05-02T07:57:33.281Z,2.10
2023-05-02T08:00:22.574Z,2.08
2023-05-02T08:03:12.099Z,1.95
2023-05-02T08:06:03.153Z,2.30
2023-05-02T08:08:52.728Z,1.90
2023-05-02T08:11:42.119Z,1.98
2023-05-02T08:14:31.461Z,2.40
2023-05-02T08:17:20.805Z,2.17
2023-05-02T08:20:10.723Z,2.10
2023-05-02T08:23:00.693Z,2.10
2023-05-02T08:25:50.188Z,2.05
2023-05-02T08:28:39.468Z,2.25
2023-05-02T08:31:28.793Z,1.90
2023-05-02T08:34:19.139Z,2.15
2023-05-02T08:37:13.216Z,2.28
2023-05-02T08:40:02.953Z,2.15
2023-05-02T08:42:53.316Z,2.25
2023-05-02T08:45:45.373Z,2.10
2023-05-02T08:48:37.167Z,1.90
2023-05-02T08:51:27.273Z,2.10
2023-05-02T08:54:18.967Z,2.00
2023-05-02T08:57:08.410Z,2.25
2023-05-02T08:59:57.782Z,2.28
2023-05-02T09:03:01.464Z,2.15
2023-05-02T09:05:56.334Z,1.73
2023-05-02T09:08:47.283Z,2.10
2023-05-02T09:11:36.672Z,2.20
2023-05-02T09:14:26.133Z,2.25
2023-05-02T09:17:15.531Z,1.80
2023-05-02T09:20:05.671Z,1.90
2023-05-02T09:22:55.187Z,2.20
2023-05-02T09:25:44.755Z,2.08
2023-05-02T09:28:47.764Z,2.00
2023-05-02T09:34:37.696Z,2.00
2023-05-02T09:37:36.812Z,2.30
2023-05-02T09:40:26.823Z,2.00
2023-05-02T09:43:20.072Z,2.20
2023-05-02T09:46:12.844Z,1.98
2023-05-02T09:49:02.166Z,2.20
2023-05-02T09:51:51.589Z,2.15
2023-05-02T09:54:41.047Z,2.33
2023-05-02T09:57:45.308Z,2.38
2023-05-02T10:00:47.671Z,2.17
2023-05-02T10:03:39.314Z,2.10
2023-05-02T10:06:29.470Z,2.10
2023-05-02T10:09:21.714Z,2.20
2023-05-02T10:12:11.338Z,2.05
2023-05-02T10:15:06.599Z,2.28
2023-05-02T10:17:59.816Z,2.00
2023-05-02T10:20:57.769Z,2.15
2023-05-02T10:23:47.235Z,2.00
2023-05-02T10:26:37.640Z,2.40
2023-05-02T10:29:33.285Z,1.88
2023-05-02T10:32:24.338Z,1.70
2023-05-02T10:35:14.685Z,1.98
2023-05-02T10:38:04.281Z,2.10
2023-05-02T10:41:09.762Z,2.13
2023-05-02T10:43:59.913Z,2.10
2023-05-02T10:46:49.273Z,2.20
2023-05-02T10:49:55.568Z,2.20
2023-05-02T10:52:44.813Z,2.00
2023-05-02T10:55:34.595Z,2.10
2023-05-02T10:58:24.299Z,2.00
2023-05-02T11:01:38.734Z,2.00
2023-05-02T11:04:28.619Z,2.15
2023-05-02T11:07:21.149Z,2.30
2023-05-02T11:10:19.518Z,2.15
2023-05-02T11:13:08.910Z,2.08
2023-05-02T11:15:58.496Z,2.05
2023-05-02T11:19:01.969Z,1.92
2023-05-02T11:21:54.773Z,1.92
2023-05-02T11:24:51.618Z,1.95
2023-05-02T11:27:41.013Z,2.00
2023-05-02T11:30:49.273Z,2.30
2023-05-02T11:33:38.540Z,2.10
2023-05-02T11:36:37.883Z,2.20
2023-05-02T11:39:27.297Z,2.20
2023-05-02T11:42:33.547Z,1.90
2023-05-02T11:45:23.533Z,2.30
2023-05-02T11:48:18.700Z,2.35
2023-05-02T11:51:08.223Z,2.30
2023-05-02T11:53:57.912Z,1.92
2023-05-02T11:56:47.865Z,2.28
2023-05-02T11:59:59.107Z,2.05
2023-05-02T12:02:50.082Z,2.15
2023-05-02T12:05:39.742Z,2.00
2023-05-02T12:08:30.938Z,2.17
2023-05-02T12:11:20.269Z,2.05
2023-05-02T12:14:10.501Z,2.30
2023-05-02T12:17:00.952Z,2.70
2023-05-02T12:19:51.319Z,2.10
2023-05-02T12:22:41.004Z,2.30
2023-05-02T12:25:30.655Z,1.80
2023-05-02T12:28:20.912Z,2.00
2023-05-02T12:31:12.563Z,1.88
2023-05-02T12:34:02.368Z,1.85
2023-05-02T12:36:55.520Z,2.00
2023-05-02T12:39:45.488Z,2.00
2023-05-02T12:42:36.070Z,1.90
2023-05-02T12:45:25.683Z,2.00
2023-05-02T12:48:28.801Z,2.00
2023-05-02T12:51:27.168Z,1.80
2023-05-02T12:54:25.509Z,1.98
2023-05-02T12:57:27.683Z,2.00
2023-05-02T13:00:19.331Z,1.60
2023-05-02T13:03:09.660Z,1.88
2023-05-02T13:05:59.021Z,1.80
2023-05-02T13:08:48.304Z,1.70
2023-05-02T13:11:37.641Z,1.80
2023-05-02T13:14:27.266Z,1.70
2023-05-02T13:17:16.915Z,1.98
2023-05-02T13:20:07.060Z,1.90
2023-05-02T13:22:56.682Z,1.80
2023-05-02T13:25:46.084Z,1.73
2023-05-02T13:28:36.796Z,1.80
2023-05-02T13:31:26.173Z,1.80
2023-05-02T13:34:15.536Z,1.70
2023-05-02T13:37:05.095Z,1.70
2023-05-02T13:39:54.558Z,1.60
2023-05-02T13:42:44.002Z,1.70
2023-05-02T13:45:36.595Z,1.55
2023-05-02T13:48:26.555Z,1.60
2023-05-02T13:51:15.797Z,1.60
2023-05-02T13:54:05.141Z,1.52
2023-05-02T13:56:54.471Z,1.50
2023-05-02T13:59:43.835Z,1.50
2023-05-02T14:02:33.179Z,1.63
2023-05-02T14:05:22.695Z,1.48
2023-05-02T14:08:13.182Z,1.50
2023-05-02T14:11:03.367Z,1.40
2023-05-02T14:13:54.485Z,1.63
2023-05-02T14:16:43.791Z,1.60
2023-05-02T14:19:33.621Z,1.50
2023-05-02T14:22:22.914Z,1.70
2023-05-02T14:25:14.994Z,1.50
2023-05-02T14:28:05.011Z,1.55
2023-05-02T14:30:54.267Z,1.48
2023-05-02T14:33:43.624Z,1.48
2023-05-02T14:36:32.945Z,1.70
2023-05-02T14:39:22.255Z,1.40
2023-05-02T14:42:11.647Z,1.48
2023-05-02T14:45:03.348Z,1.48
2023-05-02T14:47:53.427Z,1.60
2023-05-02T14:50:42.882Z,1.40
2023-05-02T14:53:32.473Z,1.70
2023-05-02T14:56:22.001Z,1.63
2023-05-02T14:59:11.454Z,1.60
2023-05-02T15:02:00.836Z,2.03
2023-05-02T15:04:50.224Z,1.40
2023-05-02T15:07:40.333Z,1.58
2023-05-02T15:10:29.877Z,1.40
2023-05-02T15:13:19.292Z,1.40
2023-05-02T15:16:09.410Z,1.50
2023-05-02T15:18:58.904Z,1.50
2023-05-02T15:21:48.195Z,1.67
2023-05-02T15:24:37.657Z,1.60
2023-05-02T15:27:26.980Z,1.60
2023-05-02T15:30:17.997Z,1.50
2023-05-02T15:33:07.560Z,1.60
2023-05-02T15:36:02.351Z,1.60
2023-05-02T15:38:51.730Z,1.70
2023-05-02T15:41:41.097Z,1.40
2023-05-02T15:44:30.345Z,1.50
2023-05-02T15:47:21.460Z,1.50
2023-05-02T15:50:12.092Z,1.50
2023-05-02T15:53:01.630Z,1.67
2023-05-02T15:55:52.253Z,1.40
2023-05-02T15:58:42.137Z,1.50
2023-05-02T16:01:31.454Z,1.60
2023-05-02T16:04:20.888Z,1.60
2023-05-02T16:07:11.157Z,1.52
2023-05-02T16:10:00.905Z,1.60
2023-05-02T16:12:50.484Z,1.63
2023-05-02T16:15:40.643Z,1.60
2023-05-02T16:18:30.003Z,1.48
2023-05-02T16:21:19.420Z,1.50
2023-05-02T16:24:09.275Z,1.58
2023-05-02T16:26:58.725Z,1.40
2023-05-02T16:29:48.092Z,1.50
2023-05-02T16:32:40.746Z,1.83
2023-05-02T16:35:30.307Z,1.45
2023-05-02T16:38:20.282Z,1.40
2023-05-02T16:41:09.955Z,1.50
2023-05-02T16:44:01.332Z,1.50
2023-05-02T16:46:50.666Z,1.50
2023-05-02T16:49:40.450Z,1.67
2023-05-02T16:52:30.210Z,1.40
2023-05-02T16:55:19.566Z,1.50
2023-05-02T16:58:08.829Z,1.50
2023-05-02T17:01:00.254Z,1.60
2023-05-02T17:03:49.554Z,1.50
2023-05-02T17:06:38.966Z,1.60
2023-05-02T17:09:28.210Z,1.50
2023-05-02T17:12:23.465Z,1.40
2023-05-02T17:15:12.759Z,1.48
2023-05-02T17:18:02.087Z,1.65
2023-05-02T17:20:51.847Z,1.52
2023-05-02T17:23:41.383Z,1.60
2023-05-02T17:26:30.894Z,1.50
2023-05-02T17:29:21.271Z,1.40
2023-05-02T17:32:12.316Z,1.50
2023-05-02T17:35:02.056Z,1.52
2023-05-02T17:37:51.533Z,1.48
2023-05-02T17:40:41.251Z,1.50
2023-05-02T17:43:30.662Z,1.60
2023-05-02T17:46:20.150Z,1.55
2023-05-02T17:49:09.692Z,1.60
2023-05-02T17:51:58.976Z,1.50
2023-05-02T17:54:48.345Z,1.60
2023-05-02T17:57:37.685Z,1.60
2023-05-02T18:00:31.350Z,1.60
2023-05-02T18:03:20.820Z,1.40
2023-05-02T18:06:10.525Z,1.40
2023-05-02T18:09:00.615Z,1.40
2023-05-02T18:11:59.582Z,1.50
2023-05-02T18:14:50.115Z,1.50
2023-05-02T18:17:39.535Z,1.55
2023-05-02T18:20:28.969Z,1.50
2023-05-02T18:23:18.207Z,1.40
2023-05-02T18:26:14.096Z,1.40
2023-05-02T18:29:03.819Z,1.67
2023-05-02T18:31:53.831Z,1.55
2023-05-02T18:34:43.142Z,1.40
2023-05-02T18:37:32.657Z,1.40
2023-05-02T18:40:22.004Z,1.58
2023-05-02T18:43:11.306Z,1.50
2023-05-02T18:46:00.561Z,1.30
2023-05-02T18:48:49.996Z,1.40
2023-05-02T18:51:39.277Z,1.50
2023-05-02T18:54:29.811Z,1.60
2023-05-02T18:57:19.121Z,1.40
2023-05-02T19:00:09.210Z,1.40
2023-05-02T19:02:58.790Z,1.50
2023-05-02T19:05:48.264Z,1.45
2023-05-02T19:08:37.602Z,1.50
2023-05-02T19:11:27.340Z,1.40
2023-05-02T19:14:16.656Z,1.52
2023-05-02T19:17:06.882Z,1.50
2023-05-02T19:19:56.938Z,1.40
2023-05-02T19:22:47.594Z,1.40
2023-05-02T19:25:40.057Z,1.50
2023-05-02T19:28:30.265Z,1.50
2023-05-02T19:31:21.691Z,1.70
2023-05-02T19:34:11.222Z,1.67
2023-05-02T19:37:00.479Z,1.42
2023-05-02T19:39:50.072Z,1.50
2023-05-02T19:42:40.399Z,1.50
2023-05-02T19:45:29.686Z,1.42
2023-05-02T19:48:18.990Z,1.30
2023-05-02T19:51:09.051Z,1.30
2023-05-02T19:53:59.779Z,1.50
2023-05-02T19:56:49.987Z,1.38
2023-05-02T19:59:39.254Z,1.50
2023-05-02T20:02:29.126Z,1.60
2023-05-02T20:05:18.529Z,1.40
2023-05-02T20:08:07.929Z,1.40
2023-05-02T20:10:57.885Z,1.40
2023-05-02T20:13:47.268Z,1.42
2023-05-02T20:16:36.682Z,1.60
2023-05-02T20:19:28.398Z,1.60
2023-05-02T20:22:17.644Z,1.60
2023-05-02T20:25:09.001Z,1.50
2023-05-02T20:27:58.323Z,1.60
2023-05-02T20:30:47.815Z,1.50
2023-05-02T20:33:45.166Z,1.50
2023-05-02T20:36:35.430Z,1.40
2023-05-02T20:39:25.032Z,1.42
2023-05-02T20:42:24.280Z,1.48
2023-05-02T20:45:14.928Z,1.48
2023-05-02T20:48:04.449Z,1.60
2023-05-02T20:50:55.461Z,1.60
2023-05-02T20:53:45.764Z,1.42
2023-05-02T20:56:35.057Z,1.60
2023-05-02T20:59:26.556Z,1.50
2023-05-02T21:02:15.805Z,1.50
2023-05-02T21:05:05.244Z,1.50
2023-05-02T21:07:54.539Z,7.63
2023-05-02T21:10:43.842Z,4.60
2023-05-02T21:13:33.416Z,3.40
2023-05-02T21:16:23.489Z,2.55
2023-05-02T21:19:13.059Z,2.58
2023-05-02T21:22:02.445Z,3.22
2023-05-02T21:24:52.204Z,2.42
2023-05-02T21:27:41.684Z,2.55
2023-05-02T21:30:30.926Z,2.88
2023-05-02T21:33:20.385Z,2.70
2023-05-02T21:36:10.118Z,3.15
2023-05-02T21:38:59.442Z,2.50
2023-05-02T21:41:48.704Z,2.25
2023-05-02T21:44:37.966Z,2.28
2023-05-02T21:47:27.379Z,2.00
2023-05-02T21:50:16.854Z,1.85
2023-05-02T21:53:06.146Z,2.42
2023-05-02T21:55:56.487Z,2.05
2023-05-02T21:58:48.771Z,2.17
2023-05-02T22:01:38.055Z,2.30
2023-05-02T22:04:27.825Z,1.58
2023-05-02T22:07:17.107Z,2.17
2023-05-02T22:10:07.802Z,1.70
2023-05-02T22:12:57.745Z,1.73
2023-05-02T22:15:48.385Z,1.70
2023-05-02T22:18:38.062Z,1.60
2023-05-02T22:21:28.206Z,2.08
2023-05-02T22:24:18.318Z,2.13
2023-05-02T22:27:08.587Z,1.80
2023-05-02T22:29:57.978Z,2.22
2023-05-02T22:32:47.479Z,1.85
2023-05-02T22:35:38.746Z,2.05
2023-05-02T22:38:28.154Z,1.90
2023-05-02T22:41:17.828Z,1.77
2023-05-02T22:44:07.258Z,1.95
2023-05-02T22:46:56.656Z,1.92
2023-05-02T22:49:47.224Z,1.90
2023-05-02T22:52:39.001Z,1.63
2023-05-02T22:55:28.272Z,1.90
2023-05-02T22:58:17.591Z,1.90
2023-05-02T23:01:06.969Z,1.60
2023-05-02T23:03:56.565Z,1.70
2023-05-02T23:06:46.370Z,1.60
2023-05-02T23:09:35.971Z,1.98
2023-05-02T23:12:25.271Z,1.70
2023-05-02T23:15:15.059Z,1.58
2023-05-02T23:18:04.502Z,2.10
2023-05-02T23:20:54.413Z,1.75
2023-05-02T23:23:44.175Z,1.70
2023-05-02T23:26:33.477Z,1.55
2023-05-02T23:29:22.990Z,1.70
2023-05-02T23:32:12.430Z,1.63
2023-05-02T23:35:02.810Z,1.70
2023-05-02T23:37:52.463Z,1.40
2023-05-02T23:40:41.724Z,1.20
2023-05-02T23:43:31.416Z,1.40
2023-05-02T23:46:20.656Z,1.50
2023-05-02T23:49:10.204Z,1.30
2023-05-02T23:51:59.556Z,1.60
2023-05-02T23:54:48.906Z,1.48
2023-05-02T23:57:38.622Z,1.88
